sensor_id;sensor_type;location;lat;lon;timestamp;P1;durP1;ratioP1;P2;durP2;ratioP2
24559;SDS011;12727;49.934;8.656;2022-07-23T00:02:01;8.80;;;4.78;;
24559;SDS011;12727;49.934;8.656;2022-07-23T00:04:26;8.10;;;5.15;;
24559;SDS011;12727;49.934;8.656;2022-07-23T00:06:52;6.82;;;4.90;;
24559;SDS011;12727;49.934;8.656;2022-07-23T00:09:17;7.60;;;5.35;;
24559;SDS011;12727;49.934;8.656;2022-07-23T00:11:43;7.70;;;5.38;;
24559;SDS011;12727;49.934;8.656;2022-07-23T00:14:08;6.18;;;4.80;;
24559;SDS011;12727;49.934;8.656;2022-07-23T00:16:34;6.00;;;5.25;;
24559;SDS011;12727;49.934;8.656;2022-07-23T00:18:59;9.70;;;5.50;;
24559;SDS011;12727;49.934;8.656;2022-07-23T00:21:27;5.82;;;5.22;;
24559;SDS011;12727;49.934;8.656;2022-07-23T00:23:53;7.10;;;5.53;;
24559;SDS011;12727;49.934;8.656;2022-07-23T00:26:18;7.32;;;4.28;;
24559;SDS011;12727;49.934;8.656;2022-07-23T00:28:44;6.78;;;5.22;;
24559;SDS011;12727;49.934;8.656;2022-07-23T00:31:09;7.25;;;5.30;;
24559;SDS011;12727;49.934;8.656;2022-07-23T00:33:35;6.07;;;5.05;;
24559;SDS011;12727;49.934;8.656;2022-07-23T00:36:01;6.05;;;5.43;;
24559;SDS011;12727;49.934;8.656;2022-07-23T00:38:26;6.35;;;5.38;;
24559;SDS011;12727;49.934;8.656;2022-07-23T00:40:52;7.75;;;5.35;;
24559;SDS011;12727;49.934;8.656;2022-07-23T00:43:19;6.45;;;5.40;;
24559;SDS011;12727;49.934;8.656;2022-07-23T00:45:46;6.05;;;5.35;;
24559;SDS011;12727;49.934;8.656;2022-07-23T00:48:12;6.63;;;5.03;;
24559;SDS011;12727;49.934;8.656;2022-07-23T00:50:38;7.65;;;5.20;;
24559;SDS011;12727;49.934;8.656;2022-07-23T00:53:03;8.77;;;5.50;;
24559;SDS011;12727;49.934;8.656;2022-07-23T00:55:30;8.23;;;5.68;;
24559;SDS011;12727;49.934;8.656;2022-07-23T00:57:55;6.30;;;5.60;;
24559;SDS011;12727;49.934;8.656;2022-07-23T01:00:22;8.90;;;5.78;;
24559;SDS011;12727;49.934;8.656;2022-07-23T01:02:48;6.38;;;5.30;;
24559;SDS011;12727;49.934;8.656;2022-07-23T01:05:13;7.40;;;5.03;;
24559;SDS011;12727;49.934;8.656;2022-07-23T01:07:39;6.65;;;5.95;;
24559;SDS011;12727;49.934;8.656;2022-07-23T01:10:05;6.55;;;5.60;;
24559;SDS011;12727;49.934;8.656;2022-07-23T01:12:52;6.30;;;5.57;;
24559;SDS011;12727;49.934;8.656;2022-07-23T01:15:17;6.68;;;5.97;;
24559;SDS011;12727;49.934;8.656;2022-07-23T01:17:43;10.15;;;5.70;;
24559;SDS011;12727;49.934;8.656;2022-07-23T01:20:09;6.65;;;5.32;;
24559;SDS011;12727;49.934;8.656;2022-07-23T01:22:34;10.40;;;5.50;;
24559;SDS011;12727;49.934;8.656;2022-07-23T01:25:00;9.50;;;5.50;;
24559;SDS011;12727;49.934;8.656;2022-07-23T01:27:26;7.18;;;6.28;;
24559;SDS011;12727;49.934;8.656;2022-07-23T01:29:52;8.25;;;6.00;;
24559;SDS011;12727;49.934;8.656;2022-07-23T01:32:19;7.20;;;5.65;;
24559;SDS011;12727;49.934;8.656;2022-07-23T01:34:44;13.10;;;6.15;;
24559;SDS011;12727;49.934;8.656;2022-07-23T01:37:10;9.00;;;5.75;;
24559;SDS011;12727;49.934;8.656;2022-07-23T01:39:35;6.63;;;5.55;;
24559;SDS011;12727;49.934;8.656;2022-07-23T01:42:01;8.35;;;6.25;;
24559;SDS011;12727;49.934;8.656;2022-07-23T01:44:27;7.45;;;5.97;;
24559;SDS011;12727;49.934;8.656;2022-07-23T01:46:52;6.60;;;5.90;;
24559;SDS011;12727;49.934;8.656;2022-07-23T01:49:18;7.82;;;6.22;;
24559;SDS011;12727;49.934;8.656;2022-07-23T01:51:43;7.43;;;5.53;;
24559;SDS011;12727;49.934;8.656;2022-07-23T01:54:25;7.25;;;6.05;;
24559;SDS011;12727;49.934;8.656;2022-07-23T01:56:51;7.22;;;6.03;;
24559;SDS011;12727;49.934;8.656;2022-07-23T01:59:17;6.72;;;5.80;;
24559;SDS011;12727;49.934;8.656;2022-07-23T02:01:42;8.60;;;6.22;;
24559;SDS011;12727;49.934;8.656;2022-07-23T02:04:08;6.47;;;5.60;;
24559;SDS011;12727;49.934;8.656;2022-07-23T02:06:33;7.35;;;6.03;;
24559;SDS011;12727;49.934;8.656;2022-07-23T02:08:59;10.07;;;6.80;;
24559;SDS011;12727;49.934;8.656;2022-07-23T02:11:24;7.45;;;6.45;;
24559;SDS011;12727;49.934;8.656;2022-07-23T02:13:50;8.85;;;6.88;;
24559;SDS011;12727;49.934;8.656;2022-07-23T02:16:16;6.80;;;6.10;;
24559;SDS011;12727;49.934;8.656;2022-07-23T02:18:41;8.45;;;6.20;;
24559;SDS011;12727;49.934;8.656;2022-07-23T02:21:07;10.70;;;6.50;;
24559;SDS011;12727;49.934;8.656;2022-07-23T02:23:32;7.22;;;6.40;;
24559;SDS011;12727;49.934;8.656;2022-07-23T02:25:58;9.15;;;6.63;;
24559;SDS011;12727;49.934;8.656;2022-07-23T02:28:23;8.20;;;6.40;;
24559;SDS011;12727;49.934;8.656;2022-07-23T02:30:49;9.27;;;6.10;;
24559;SDS011;12727;49.934;8.656;2022-07-23T02:33:14;7.55;;;6.40;;
24559;SDS011;12727;49.934;8.656;2022-07-23T02:35:40;7.95;;;6.75;;
24559;SDS011;12727;49.934;8.656;2022-07-23T02:38:05;8.05;;;6.45;;
24559;SDS011;12727;49.934;8.656;2022-07-23T02:40:31;7.57;;;6.45;;
24559;SDS011;12727;49.934;8.656;2022-07-23T02:42:56;8.65;;;6.50;;
24559;SDS011;12727;49.934;8.656;2022-07-23T02:45:22;8.10;;;6.63;;
24559;SDS011;12727;49.934;8.656;2022-07-23T02:47:48;7.10;;;6.40;;
24559;SDS011;12727;49.934;8.656;2022-07-23T02:50:13;7.90;;;6.70;;
24559;SDS011;12727;49.934;8.656;2022-07-23T02:52:39;9.45;;;6.20;;
24559;SDS011;12727;49.934;8.656;2022-07-23T02:55:05;9.07;;;6.07;;
24559;SDS011;12727;49.934;8.656;2022-07-23T02:57:31;7.57;;;6.22;;
24559;SDS011;12727;49.934;8.656;2022-07-23T02:59:56;9.48;;;5.97;;
24559;SDS011;12727;49.934;8.656;2022-07-23T03:02:22;7.70;;;5.95;;
24559;SDS011;12727;49.934;8.656;2022-07-23T03:04:48;6.97;;;6.28;;
24559;SDS011;12727;49.934;8.656;2022-07-23T03:07:15;7.85;;;6.50;;
24559;SDS011;12727;49.934;8.656;2022-07-23T03:09:43;8.07;;;6.05;;
24559;SDS011;12727;49.934;8.656;2022-07-23T03:12:09;11.15;;;6.75;;
24559;SDS011;12727;49.934;8.656;2022-07-23T03:14:34;7.97;;;6.38;;
24559;SDS011;12727;49.934;8.656;2022-07-23T03:17:00;9.35;;;6.13;;
24559;SDS011;12727;49.934;8.656;2022-07-23T03:19:26;8.52;;;6.07;;
24559;SDS011;12727;49.934;8.656;2022-07-23T03:21:51;7.63;;;6.72;;
24559;SDS011;12727;49.934;8.656;2022-07-23T03:24:17;7.72;;;5.80;;
24559;SDS011;12727;49.934;8.656;2022-07-23T03:26:45;7.38;;;6.00;;
24559;SDS011;12727;49.934;8.656;2022-07-23T03:29:11;6.68;;;6.07;;
24559;SDS011;12727;49.934;8.656;2022-07-23T03:31:36;8.27;;;6.47;;
24559;SDS011;12727;49.934;8.656;2022-07-23T03:34:02;7.32;;;6.30;;
24559;SDS011;12727;49.934;8.656;2022-07-23T03:36:28;8.80;;;5.63;;
24559;SDS011;12727;49.934;8.656;2022-07-23T03:38:53;9.10;;;6.40;;
24559;SDS011;12727;49.934;8.656;2022-07-23T03:41:19;6.90;;;6.20;;
24559;SDS011;12727;49.934;8.656;2022-07-23T03:43:45;8.30;;;6.30;;
24559;SDS011;12727;49.934;8.656;2022-07-23T03:46:12;6.68;;;5.45;;
24559;SDS011;12727;49.934;8.656;2022-07-23T03:48:37;7.63;;;6.45;;
24559;SDS011;12727;49.934;8.656;2022-07-23T03:51:03;8.57;;;6.40;;
24559;SDS011;12727;49.934;8.656;2022-07-23T03:53:29;7.68;;;6.60;;
24559;SDS011;12727;49.934;8.656;2022-07-23T03:55:54;10.30;;;6.32;;
24559;SDS011;12727;49.934;8.656;2022-07-23T03:58:20;6.72;;;5.55;;
24559;SDS011;12727;49.934;8.656;2022-07-23T04:00:46;8.45;;;6.00;;
24559;SDS011;12727;49.934;8.656;2022-07-23T04:03:11;8.93;;;6.32;;
24559;SDS011;12727;49.934;8.656;2022-07-23T04:05:37;8.02;;;6.45;;
24559;SDS011;12727;49.934;8.656;2022-07-23T04:08:03;7.07;;;6.35;;
24559;SDS011;12727;49.934;8.656;2022-07-23T04:10:28;8.55;;;6.38;;
24559;SDS011;12727;49.934;8.656;2022-07-23T04:12:54;7.22;;;6.28;;
24559;SDS011;12727;49.934;8.656;2022-07-23T04:15:19;8.13;;;6.57;;
24559;SDS011;12727;49.934;8.656;2022-07-23T04:17:45;8.57;;;6.63;;
24559;SDS011;12727;49.934;8.656;2022-07-23T04:20:11;9.63;;;6.60;;
24559;SDS011;12727;49.934;8.656;2022-07-23T04:22:37;7.95;;;6.43;;
24559;SDS011;12727;49.934;8.656;2022-07-23T04:25:03;9.38;;;5.78;;
24559;SDS011;12727;49.934;8.656;2022-07-23T04:27:29;8.52;;;6.00;;
24559;SDS011;12727;49.934;8.656;2022-07-23T04:29:55;8.73;;;6.53;;
24559;SDS011;12727;49.934;8.656;2022-07-23T04:32:20;9.23;;;6.35;;
24559;SDS011;12727;49.934;8.656;2022-07-23T04:34:46;9.05;;;7.13;;
24559;SDS011;12727;49.934;8.656;2022-07-23T04:37:11;5.93;;;5.38;;
24559;SDS011;12727;49.934;8.656;2022-07-23T04:39:37;7.53;;;5.97;;
24559;SDS011;12727;49.934;8.656;2022-07-23T04:42:03;8.77;;;6.22;;
24559;SDS011;12727;49.934;8.656;2022-07-23T04:44:28;7.53;;;6.70;;
24559;SDS011;12727;49.934;8.656;2022-07-23T04:46:54;6.93;;;6.20;;
24559;SDS011;12727;49.934;8.656;2022-07-23T04:49:20;8.18;;;6.38;;
24559;SDS011;12727;49.934;8.656;2022-07-23T04:51:45;8.27;;;6.47;;
24559;SDS011;12727;49.934;8.656;2022-07-23T04:54:11;7.03;;;6.32;;
24559;SDS011;12727;49.934;8.656;2022-07-23T04:56:36;7.35;;;6.60;;
24559;SDS011;12727;49.934;8.656;2022-07-23T04:59:02;8.23;;;6.28;;
24559;SDS011;12727;49.934;8.656;2022-07-23T05:01:27;8.65;;;6.97;;
24559;SDS011;12727;49.934;8.656;2022-07-23T05:03:53;7.22;;;6.20;;
24559;SDS011;12727;49.934;8.656;2022-07-23T05:06:18;10.88;;;6.68;;
24559;SDS011;12727;49.934;8.656;2022-07-23T05:08:44;9.27;;;6.35;;
24559;SDS011;12727;49.934;8.656;2022-07-23T05:11:09;7.57;;;6.80;;
24559;SDS011;12727;49.934;8.656;2022-07-23T05:13:35;7.97;;;6.50;;
24559;SDS011;12727;49.934;8.656;2022-07-23T05:16:00;7.32;;;6.47;;
24559;SDS011;12727;49.934;8.656;2022-07-23T05:18:26;8.13;;;6.75;;
24559;SDS011;12727;49.934;8.656;2022-07-23T05:20:52;7.57;;;6.78;;
24559;SDS011;12727;49.934;8.656;2022-07-23T05:23:17;8.23;;;6.85;;
24559;SDS011;12727;49.934;8.656;2022-07-23T05:25:43;10.18;;;7.30;;
24559;SDS011;12727;49.934;8.656;2022-07-23T05:28:08;7.93;;;6.80;;
24559;SDS011;12727;49.934;8.656;2022-07-23T05:30:34;10.05;;;7.10;;
24559;SDS011;12727;49.934;8.656;2022-07-23T05:32:59;7.63;;;6.78;;
24559;SDS011;12727;49.934;8.656;2022-07-23T05:35:25;7.72;;;6.38;;
24559;SDS011;12727;49.934;8.656;2022-07-23T05:37:51;8.20;;;6.70;;
24559;SDS011;12727;49.934;8.656;2022-07-23T05:40:17;7.50;;;6.72;;
24559;SDS011;12727;49.934;8.656;2022-07-23T05:42:43;10.02;;;6.90;;
24559;SDS011;12727;49.934;8.656;2022-07-23T05:45:09;7.53;;;6.05;;
24559;SDS011;12727;49.934;8.656;2022-07-23T05:47:39;9.65;;;6.90;;
24559;SDS011;12727;49.934;8.656;2022-07-23T05:50:12;8.63;;;6.25;;
24559;SDS011;12727;49.934;8.656;2022-07-23T05:52:38;7.25;;;6.43;;
24559;SDS011;12727;49.934;8.656;2022-07-23T05:55:05;7.97;;;7.05;;
24559;SDS011;12727;49.934;8.656;2022-07-23T05:57:31;8.18;;;6.50;;
24559;SDS011;12727;49.934;8.656;2022-07-23T05:59:57;7.57;;;6.55;;
24559;SDS011;12727;49.934;8.656;2022-07-23T06:02:23;7.15;;;6.38;;
24559;SDS011;12727;49.934;8.656;2022-07-23T06:04:48;8.13;;;7.00;;
24559;SDS011;12727;49.934;8.656;2022-07-23T06:07:14;8.95;;;6.75;;
24559;SDS011;12727;49.934;8.656;2022-07-23T06:09:39;7.80;;;6.80;;
24559;SDS011;12727;49.934;8.656;2022-07-23T06:12:05;7.55;;;6.20;;
24559;SDS011;12727;49.934;8.656;2022-07-23T06:14:31;8.27;;;6.38;;
24559;SDS011;12727;49.934;8.656;2022-07-23T06:16:56;7.18;;;6.45;;
24559;SDS011;12727;49.934;8.656;2022-07-23T06:19:22;8.77;;;6.65;;
24559;SDS011;12727;49.934;8.656;2022-07-23T06:21:47;7.10;;;6.15;;
24559;SDS011;12727;49.934;8.656;2022-07-23T06:24:13;7.97;;;7.10;;
24559;SDS011;12727;49.934;8.656;2022-07-23T06:26:39;7.13;;;6.43;;
24559;SDS011;12727;49.934;8.656;2022-07-23T06:29:04;7.45;;;6.60;;
24559;SDS011;12727;49.934;8.656;2022-07-23T06:31:30;7.85;;;6.20;;
24559;SDS011;12727;49.934;8.656;2022-07-23T06:33:55;9.25;;;6.32;;
24559;SDS011;12727;49.934;8.656;2022-07-23T06:36:21;7.70;;;6.60;;
24559;SDS011;12727;49.934;8.656;2022-07-23T06:38:47;7.05;;;6.40;;
24559;SDS011;12727;49.934;8.656;2022-07-23T06:41:12;9.32;;;7.05;;
24559;SDS011;12727;49.934;8.656;2022-07-23T06:43:38;11.15;;;7.38;;
24559;SDS011;12727;49.934;8.656;2022-07-23T06:46:03;8.07;;;6.40;;
24559;SDS011;12727;49.934;8.656;2022-07-23T06:48:29;9.43;;;6.88;;
24559;SDS011;12727;49.934;8.656;2022-07-23T06:50:55;7.45;;;6.65;;
24559;SDS011;12727;49.934;8.656;2022-07-23T06:53:21;8.68;;;7.07;;
24559;SDS011;12727;49.934;8.656;2022-07-23T06:55:46;9.88;;;6.90;;
24559;SDS011;12727;49.934;8.656;2022-07-23T06:58:12;7.30;;;6.35;;
24559;SDS011;12727;49.934;8.656;2022-07-23T07:00:39;11.23;;;6.97;;
24559;SDS011;12727;49.934;8.656;2022-07-23T07:03:05;8.13;;;6.80;;
24559;SDS011;12727;49.934;8.656;2022-07-23T07:05:30;10.23;;;7.65;;
24559;SDS011;12727;49.934;8.656;2022-07-23T07:07:56;9.15;;;7.00;;
24559;SDS011;12727;49.934;8.656;2022-07-23T07:10:22;10.60;;;7.30;;
24559;SDS011;12727;49.934;8.656;2022-07-23T07:12:48;7.65;;;6.70;;
24559;SDS011;12727;49.934;8.656;2022-07-23T07:15:13;9.73;;;6.93;;
24559;SDS011;12727;49.934;8.656;2022-07-23T07:17:39;7.85;;;6.00;;
24559;SDS011;12727;49.934;8.656;2022-07-23T07:20:05;7.10;;;6.30;;
24559;SDS011;12727;49.934;8.656;2022-07-23T07:22:31;9.25;;;6.63;;
24559;SDS011;12727;49.934;8.656;2022-07-23T07:24:57;7.47;;;6.22;;
24559;SDS011;12727;49.934;8.656;2022-07-23T07:27:22;8.82;;;6.50;;
24559;SDS011;12727;49.934;8.656;2022-07-23T07:29:48;7.22;;;5.90;;
24559;SDS011;12727;49.934;8.656;2022-07-23T07:32:14;6.97;;;6.28;;
24559;SDS011;12727;49.934;8.656;2022-07-23T07:34:39;8.27;;;5.60;;
24559;SDS011;12727;49.934;8.656;2022-07-23T07:37:05;9.63;;;6.18;;
24559;SDS011;12727;49.934;8.656;2022-07-23T07:39:30;6.93;;;5.72;;
24559;SDS011;12727;49.934;8.656;2022-07-23T07:41:56;7.03;;;6.22;;
24559;SDS011;12727;49.934;8.656;2022-07-23T07:44:21;6.60;;;5.65;;
24559;SDS011;12727;49.934;8.656;2022-07-23T07:46:47;6.05;;;5.43;;
24559;SDS011;12727;49.934;8.656;2022-07-23T07:49:12;7.10;;;6.07;;
24559;SDS011;12727;49.934;8.656;2022-07-23T07:51:38;8.23;;;5.10;;
24559;SDS011;12727;49.934;8.656;2022-07-23T07:54:04;6.53;;;5.32;;
24559;SDS011;12727;49.934;8.656;2022-07-23T07:56:29;6.65;;;5.78;;
24559;SDS011;12727;49.934;8.656;2022-07-23T07:58:55;9.32;;;5.65;;
24559;SDS011;12727;49.934;8.656;2022-07-23T08:01:20;8.50;;;5.65;;
24559;SDS011;12727;49.934;8.656;2022-07-23T08:03:46;7.43;;;5.15;;
24559;SDS011;12727;49.934;8.656;2022-07-23T08:06:11;7.85;;;5.18;;
24559;SDS011;12727;49.934;8.656;2022-07-23T08:08:37;5.45;;;4.93;;
24559;SDS011;12727;49.934;8.656;2022-07-23T08:11:03;7.70;;;5.50;;
24559;SDS011;12727;49.934;8.656;2022-07-23T08:13:28;8.20;;;5.55;;
24559;SDS011;12727;49.934;8.656;2022-07-23T08:15:54;6.68;;;5.65;;
24559;SDS011;12727;49.934;8.656;2022-07-23T08:18:19;6.32;;;5.43;;
24559;SDS011;12727;49.934;8.656;2022-07-23T08:20:45;6.72;;;5.70;;
24559;SDS011;12727;49.934;8.656;2022-07-23T08:23:11;7.18;;;5.78;;
24559;SDS011;12727;49.934;8.656;2022-07-23T08:25:46;6.05;;;5.43;;
24559;SDS011;12727;49.934;8.656;2022-07-23T08:28:12;6.60;;;5.32;;
24559;SDS011;12727;49.934;8.656;2022-07-23T08:30:40;6.10;;;5.32;;
24559;SDS011;12727;49.934;8.656;2022-07-23T08:33:08;7.07;;;5.25;;
24559;SDS011;12727;49.934;8.656;2022-07-23T08:35:39;6.88;;;4.75;;
24559;SDS011;12727;49.934;8.656;2022-07-23T08:38:07;7.82;;;5.45;;
24559;SDS011;12727;49.934;8.656;2022-07-23T08:40:36;6.72;;;5.00;;
24559;SDS011;12727;49.934;8.656;2022-07-23T08:43:06;5.80;;;4.80;;
24559;SDS011;12727;49.934;8.656;2022-07-23T08:45:35;5.75;;;4.68;;
24559;SDS011;12727;49.934;8.656;2022-07-23T08:48:03;8.07;;;4.30;;
24559;SDS011;12727;49.934;8.656;2022-07-23T08:50:32;8.10;;;5.18;;
24559;SDS011;12727;49.934;8.656;2022-07-23T08:53:01;5.22;;;4.60;;
24559;SDS011;12727;49.934;8.656;2022-07-23T08:55:27;4.82;;;4.32;;
24559;SDS011;12727;49.934;8.656;2022-07-23T08:57:53;5.35;;;4.15;;
24559;SDS011;12727;49.934;8.656;2022-07-23T09:00:19;7.05;;;4.60;;
24559;SDS011;12727;49.934;8.656;2022-07-23T09:02:46;6.10;;;4.50;;
24559;SDS011;12727;49.934;8.656;2022-07-23T09:05:13;5.10;;;4.28;;
24559;SDS011;12727;49.934;8.656;2022-07-23T09:08:02;5.80;;;4.43;;
24559;SDS011;12727;49.934;8.656;2022-07-23T09:10:46;5.53;;;4.60;;
24559;SDS011;12727;49.934;8.656;2022-07-23T09:15:57;5.70;;;4.70;;
24559;SDS011;12727;49.934;8.656;2022-07-23T09:23:39;6.80;;;4.32;;
24559;SDS011;12727;49.934;8.656;2022-07-23T09:26:27;11.55;;;4.97;;
24559;SDS011;12727;49.934;8.656;2022-07-23T09:29:03;6.13;;;5.10;;
24559;SDS011;12727;49.934;8.656;2022-07-23T09:31:34;50.38;;;10.13;;
24559;SDS011;12727;49.934;8.656;2022-07-23T09:34:11;39.38;;;7.57;;
24559;SDS011;12727;49.934;8.656;2022-07-23T09:36:48;6.25;;;4.60;;
24559;SDS011;12727;49.934;8.656;2022-07-23T09:39:15;6.90;;;4.55;;
24559;SDS011;12727;49.934;8.656;2022-07-23T09:41:47;6.80;;;4.68;;
24559;SDS011;12727;49.934;8.656;2022-07-23T09:44:14;6.45;;;4.78;;
24559;SDS011;12727;49.934;8.656;2022-07-23T09:46:41;7.30;;;4.95;;
24559;SDS011;12727;49.934;8.656;2022-07-23T09:51:45;5.05;;;4.55;;
24559;SDS011;12727;49.934;8.656;2022-07-23T09:54:22;4.72;;;4.22;;
24559;SDS011;12727;49.934;8.656;2022-07-23T09:56:56;5.75;;;4.50;;
24559;SDS011;12727;49.934;8.656;2022-07-23T09:59:26;7.80;;;4.55;;
24559;SDS011;12727;49.934;8.656;2022-07-23T10:01:58;5.63;;;4.15;;
24559;SDS011;12727;49.934;8.656;2022-07-23T10:04:24;5.18;;;4.32;;
24559;SDS011;12727;49.934;8.656;2022-07-23T10:06:53;5.57;;;4.60;;
24559;SDS011;12727;49.934;8.656;2022-07-23T10:09:30;5.38;;;4.60;;
24559;SDS011;12727;49.934;8.656;2022-07-23T10:11:58;5.20;;;4.70;;
24559;SDS011;12727;49.934;8.656;2022-07-23T10:14:38;5.13;;;4.63;;
24559;SDS011;12727;49.934;8.656;2022-07-23T10:17:05;5.20;;;4.70;;
24559;SDS011;12727;49.934;8.656;2022-07-23T10:19:31;5.97;;;4.65;;
24559;SDS011;12727;49.934;8.656;2022-07-23T10:22:00;6.47;;;4.93;;
24559;SDS011;12727;49.934;8.656;2022-07-23T10:24:36;8.70;;;4.75;;
24559;SDS011;12727;49.934;8.656;2022-07-23T10:41:19;5.85;;;5.05;;
24559;SDS011;12727;49.934;8.656;2022-07-23T10:47:02;7.43;;;4.95;;
24559;SDS011;12727;49.934;8.656;2022-07-23T10:49:32;5.45;;;4.82;;
24559;SDS011;12727;49.934;8.656;2022-07-23T10:54:42;6.00;;;5.40;;
24559;SDS011;12727;49.934;8.656;2022-07-23T10:57:11;5.93;;;5.32;;
24559;SDS011;12727;49.934;8.656;2022-07-23T11:02:32;6.68;;;4.97;;
24559;SDS011;12727;49.934;8.656;2022-07-23T11:05:03;6.05;;;5.45;;
24559;SDS011;12727;49.934;8.656;2022-07-23T11:07:29;6.75;;;5.38;;
24559;SDS011;12727;49.934;8.656;2022-07-23T11:09:55;6.22;;;5.38;;
24559;SDS011;12727;49.934;8.656;2022-07-23T11:20:19;7.68;;;5.47;;
24559;SDS011;12727;49.934;8.656;2022-07-23T11:22:50;6.25;;;5.65;;
24559;SDS011;12727;49.934;8.656;2022-07-23T11:27:46;6.22;;;5.63;;
24559;SDS011;12727;49.934;8.656;2022-07-23T11:32:54;6.55;;;5.53;;
24559;SDS011;12727;49.934;8.656;2022-07-23T11:35:50;6.45;;;5.82;;
24559;SDS011;12727;49.934;8.656;2022-07-23T11:38:27;6.40;;;5.70;;
24559;SDS011;12727;49.934;8.656;2022-07-23T11:40:55;7.05;;;5.75;;
24559;SDS011;12727;49.934;8.656;2022-07-23T11:43:24;6.28;;;5.68;;
24559;SDS011;12727;49.934;8.656;2022-07-23T11:45:54;6.65;;;5.63;;
24559;SDS011;12727;49.934;8.656;2022-07-23T11:48:24;6.80;;;6.10;;
24559;SDS011;12727;49.934;8.656;2022-07-23T11:50:51;8.77;;;5.93;;
24559;SDS011;12727;49.934;8.656;2022-07-23T11:53:21;9.20;;;6.72;;
24559;SDS011;12727;49.934;8.656;2022-07-23T11:56:02;7.50;;;5.97;;
24559;SDS011;12727;49.934;8.656;2022-07-23T11:58:31;7.97;;;6.00;;
24559;SDS011;12727;49.934;8.656;2022-07-23T12:00:57;6.35;;;5.75;;
24559;SDS011;12727;49.934;8.656;2022-07-23T12:03:23;7.60;;;6.07;;
24559;SDS011;12727;49.934;8.656;2022-07-23T12:05:48;6.63;;;5.93;;
24559;SDS011;12727;49.934;8.656;2022-07-23T12:08:14;6.53;;;5.90;;
24559;SDS011;12727;49.934;8.656;2022-07-23T12:10:41;8.23;;;5.60;;
24559;SDS011;12727;49.934;8.656;2022-07-23T12:13:09;7.13;;;5.68;;
24559;SDS011;12727;49.934;8.656;2022-07-23T12:15:44;8.15;;;5.97;;
24559;SDS011;12727;49.934;8.656;2022-07-23T12:18:18;7.45;;;6.25;;
24559;SDS011;12727;49.934;8.656;2022-07-23T12:20:49;6.72;;;5.63;;
24559;SDS011;12727;49.934;8.656;2022-07-23T12:23:20;6.40;;;5.80;;
24559;SDS011;12727;49.934;8.656;2022-07-23T12:25:47;6.65;;;5.95;;
24559;SDS011;12727;49.934;8.656;2022-07-23T12:30:50;7.30;;;6.13;;
24559;SDS011;12727;49.934;8.656;2022-07-23T12:33:22;7.03;;;6.32;;
24559;SDS011;12727;49.934;8.656;2022-07-23T12:36:02;5.85;;;5.25;;
24559;SDS011;12727;49.934;8.656;2022-07-23T12:41:28;6.80;;;5.90;;
24559;SDS011;12727;49.934;8.656;2022-07-23T12:44:15;6.95;;;5.60;;
24559;SDS011;12727;49.934;8.656;2022-07-23T12:46:40;6.25;;;5.65;;
24559;SDS011;12727;49.934;8.656;2022-07-23T12:49:06;7.70;;;6.07;;
24559;SDS011;12727;49.934;8.656;2022-07-23T12:51:32;7.10;;;5.45;;
24559;SDS011;12727;49.934;8.656;2022-07-23T12:56:35;7.70;;;6.32;;
24559;SDS011;12727;49.934;8.656;2022-07-23T13:01:28;7.45;;;5.85;;
24559;SDS011;12727;49.934;8.656;2022-07-23T13:04:09;6.18;;;5.57;;
24559;SDS011;12727;49.934;8.656;2022-07-23T13:06:45;8.80;;;6.07;;
24559;SDS011;12727;49.934;8.656;2022-07-23T13:09:24;9.00;;;5.88;;
24559;SDS011;12727;49.934;8.656;2022-07-23T13:11:51;6.72;;;5.50;;
24559;SDS011;12727;49.934;8.656;2022-07-23T13:14:18;6.10;;;5.47;;
24559;SDS011;12727;49.934;8.656;2022-07-23T13:16:45;5.80;;;5.20;;
24559;SDS011;12727;49.934;8.656;2022-07-23T13:19:11;5.93;;;5.43;;
24559;SDS011;12727;49.934;8.656;2022-07-23T13:21:37;5.82;;;5.18;;
24559;SDS011;12727;49.934;8.656;2022-07-23T13:24:03;6.50;;;5.47;;
24559;SDS011;12727;49.934;8.656;2022-07-23T13:26:29;8.32;;;5.25;;
24559;SDS011;12727;49.934;8.656;2022-07-23T13:28:55;6.88;;;5.57;;
24559;SDS011;12727;49.934;8.656;2022-07-23T13:31:21;6.97;;;4.70;;
24559;SDS011;12727;49.934;8.656;2022-07-23T13:33:46;5.63;;;5.10;;
24559;SDS011;12727;49.934;8.656;2022-07-23T13:36:12;5.70;;;5.10;;
24559;SDS011;12727;49.934;8.656;2022-07-23T13:38:39;43.65;;;8.68;;
24559;SDS011;12727;49.934;8.656;2022-07-23T13:41:05;5.57;;;5.07;;
24559;SDS011;12727;49.934;8.656;2022-07-23T13:43:31;6.68;;;5.47;;
24559;SDS011;12727;49.934;8.656;2022-07-23T13:45:57;5.35;;;4.82;;
24559;SDS011;12727;49.934;8.656;2022-07-23T13:48:24;6.80;;;5.40;;
24559;SDS011;12727;49.934;8.656;2022-07-23T13:50:50;6.82;;;5.15;;
24559;SDS011;12727;49.934;8.656;2022-07-23T13:53:21;5.85;;;4.78;;
24559;SDS011;12727;49.934;8.656;2022-07-23T13:55:49;5.70;;;4.80;;
24559;SDS011;12727;49.934;8.656;2022-07-23T13:58:18;6.65;;;5.10;;
24559;SDS011;12727;49.934;8.656;2022-07-23T14:00:46;5.88;;;4.95;;
24559;SDS011;12727;49.934;8.656;2022-07-23T14:03:13;5.70;;;5.20;;
24559;SDS011;12727;49.934;8.656;2022-07-23T14:05:39;5.80;;;4.88;;
24559;SDS011;12727;49.934;8.656;2022-07-23T14:08:06;7.00;;;4.95;;
24559;SDS011;12727;49.934;8.656;2022-07-23T14:10:32;5.75;;;4.97;;
24559;SDS011;12727;49.934;8.656;2022-07-23T14:12:58;6.72;;;4.93;;
24559;SDS011;12727;49.934;8.656;2022-07-23T14:15:24;6.10;;;5.30;;
24559;SDS011;12727;49.934;8.656;2022-07-23T14:17:51;6.65;;;5.07;;
24559;SDS011;12727;49.934;8.656;2022-07-23T14:20:18;5.82;;;4.90;;
24559;SDS011;12727;49.934;8.656;2022-07-23T14:22:44;6.70;;;4.93;;
24559;SDS011;12727;49.934;8.656;2022-07-23T14:25:10;6.68;;;5.00;;
24559;SDS011;12727;49.934;8.656;2022-07-23T14:27:37;6.03;;;5.13;;
24559;SDS011;12727;49.934;8.656;2022-07-23T14:30:03;6.15;;;4.60;;
24559;SDS011;12727;49.934;8.656;2022-07-23T14:32:29;6.05;;;4.85;;
24559;SDS011;12727;49.934;8.656;2022-07-23T14:34:55;5.50;;;5.00;;
24559;SDS011;12727;49.934;8.656;2022-07-23T14:37:20;6.13;;;5.30;;
24559;SDS011;12727;49.934;8.656;2022-07-23T14:39:47;5.82;;;4.65;;
24559;SDS011;12727;49.934;8.656;2022-07-23T14:42:12;5.68;;;4.97;;
24559;SDS011;12727;49.934;8.656;2022-07-23T14:44:39;6.03;;;5.10;;
24559;SDS011;12727;49.934;8.656;2022-07-23T14:47:04;6.07;;;5.43;;
24559;SDS011;12727;49.934;8.656;2022-07-23T14:49:31;6.40;;;5.18;;
24559;SDS011;12727;49.934;8.656;2022-07-23T14:51:57;9.45;;;5.43;;
24559;SDS011;12727;49.934;8.656;2022-07-23T14:54:24;8.27;;;4.88;;
24559;SDS011;12727;49.934;8.656;2022-07-23T14:56:51;5.28;;;4.78;;
24559;SDS011;12727;49.934;8.656;2022-07-23T14:59:18;6.30;;;5.22;;
24559;SDS011;12727;49.934;8.656;2022-07-23T15:01:44;17.98;;;5.60;;
24559;SDS011;12727;49.934;8.656;2022-07-23T15:04:09;33.88;;;6.38;;
24559;SDS011;12727;49.934;8.656;2022-07-23T15:06:35;6.45;;;5.03;;
24559;SDS011;12727;49.934;8.656;2022-07-23T15:09:01;5.70;;;5.00;;
24559;SDS011;12727;49.934;8.656;2022-07-23T15:11:27;6.65;;;5.13;;
24559;SDS011;12727;49.934;8.656;2022-07-23T15:13:57;5.85;;;5.25;;
24559;SDS011;12727;49.934;8.656;2022-07-23T15:16:22;5.75;;;5.15;;
24559;SDS011;12727;49.934;8.656;2022-07-23T15:18:48;5.70;;;4.88;;
24559;SDS011;12727;49.934;8.656;2022-07-23T15:21:14;6.40;;;5.50;;
24559;SDS011;12727;49.934;8.656;2022-07-23T15:23:39;6.03;;;5.18;;
24559;SDS011;12727;49.934;8.656;2022-07-23T15:26:05;8.57;;;5.25;;
24559;SDS011;12727;49.934;8.656;2022-07-23T15:28:32;5.65;;;5.15;;
24559;SDS011;12727;49.934;8.656;2022-07-23T15:30:58;5.70;;;4.80;;
24559;SDS011;12727;49.934;8.656;2022-07-23T15:33:24;5.95;;;5.03;;
24559;SDS011;12727;49.934;8.656;2022-07-23T15:35:49;10.07;;;5.15;;
24559;SDS011;12727;49.934;8.656;2022-07-23T15:38:17;5.72;;;5.20;;
24559;SDS011;12727;49.934;8.656;2022-07-23T15:40:43;9.25;;;5.53;;
24559;SDS011;12727;49.934;8.656;2022-07-23T15:43:08;6.13;;;4.50;;
24559;SDS011;12727;49.934;8.656;2022-07-23T15:45:34;6.95;;;5.25;;